Time;durP1;ratioP1;P1;durP2;ratioP2;P2;SDS_P1;SDS_P2;PMS_P1;PMS_P2;Temp;Humidity;BMP_temperature;BMP_pressure;BME280_temperature;BME280_humidity;BME280_pressure;Samples;Min_cycle;Max_cycle;Signal;HPM_P1;HPM_P2
2021/04/11 00:01:46;;;;;;;;;9.80;9.00;;;;;17.64;29.05;98852.56;5644469;28;4912680;-65
2021/04/11 00:04:53;;;;;;;;;12.67;11.67;;;;;17.54;28.87;98856.06;5624804;28;5686621;-65
2021/04/11 00:07:59;;;;;;;;;11.60;10.60;;;;;17.45;29.04;98844.00;5627105;28;4951281;-65
2021/04/11 00:11:05;;;;;;;;;11.20;10.80;;;;;17.46;28.89;98842.09;5616008;28;4975150;-65
2021/04/11 00:14:11;;;;;;;;;14.17;13.00;;;;;17.46;28.80;98837.47;5646360;28;5698105;-65
2021/04/11 00:17:17;;;;;;;;;14.17;13.17;;;;;17.53;28.89;98843.50;5638437;28;4971012;-65
2021/04/11 00:20:24;;;;;;;;;13.33;12.00;;;;;17.52;29.14;98835.59;5626617;28;4957987;-65
2021/04/11 00:23:30;;;;;;;;;13.00;12.00;;;;;17.49;29.42;98834.22;5621755;28;5689778;-65
2021/04/11 00:26:37;;;;;;;;;15.00;13.00;;;;;17.43;29.75;98842.66;5619189;28;5708873;-65
2021/04/11 00:29:43;;;;;;;;;12.83;11.83;;;;;17.32;29.87;98834.44;5623178;28;4960619;-65
2021/04/11 00:32:51;;;;;;;;;14.71;14.29;;;;;17.18;29.89;98841.47;5646849;28;5708567;-65
2021/04/11 00:35:59;;;;;;;;;9.60;9.00;;;;;17.19;29.56;98840.38;5634236;28;4893930;-65
2021/04/11 00:39:06;;;;;;;;;10.17;10.17;;;;;17.21;29.72;98832.75;5624061;28;4967309;-65
2021/04/11 00:42:20;;;;;;;;;11.00;10.50;;;;;17.24;29.61;98826.78;5634388;28;5676211;-65
2021/04/11 00:45:33;;;;;;;;;15.67;13.17;;;;;17.29;29.43;98829.53;5639427;28;5707464;-65
2021/04/11 00:48:38;;;;;;;;;12.00;11.00;;;;;17.27;29.89;98834.41;5637635;28;4951608;-64
2021/04/11 00:51:46;;;;;;;;;16.00;15.00;;;;;17.22;29.99;98836.28;5606282;28;5735614;-64
2021/04/11 00:54:52;;;;;;;;;12.67;11.67;;;;;17.14;30.24;98828.63;5633186;28;5692946;-64
2021/04/11 00:58:02;;;;;;;;;13.83;12.33;;;;;17.05;30.45;98816.59;5627563;28;5685927;-64
2021/04/11 01:01:09;;;;;;;;;14.00;12.17;;;;;16.94;30.80;98820.34;5646532;28;4960715;-64
2021/04/11 01:04:15;;;;;;;;;16.00;14.00;;;;;16.78;30.59;98822.16;5631610;28;4444956;-64
2021/04/11 01:07:25;;;;;;;;;15.00;14.00;;;;;16.69;30.82;98827.28;5622580;28;4976303;-64
2021/04/11 01:10:36;;;;;;;;;13.50;12.00;;;;;16.61;31.47;98819.63;5611936;28;4957608;-64
2021/04/11 01:13:47;;;;;;;;;12.00;11.50;;;;;16.58;31.32;98814.69;5620507;28;4960728;-64
2021/04/11 01:16:52;;;;;;;;;14.00;12.67;;;;;16.47;32.18;98816.50;5617863;28;5702229;-64
2021/04/11 01:19:57;;;;;;;;;16.00;14.17;;;;;16.39;32.07;98822.44;5606225;28;5737734;-64
2021/04/11 01:23:33;;;;;;;;;16.29;15.00;;;;;16.27;32.43;98813.63;5625662;28;6453272;-64
2021/04/11 01:26:41;;;;;;;;;16.00;14.00;;;;;16.13;32.25;98796.09;5625049;28;3883556;-64
2021/04/11 01:29:49;;;;;;;;;13.00;13.00;;;;;16.27;32.22;98819.06;5623991;28;5680339;-64
2021/04/11 01:32:59;;;;;;;;;15.14;15.00;;;;;16.32;32.16;98821.03;5634259;28;6456394;-64
2021/04/11 01:36:10;;;;;;;;;15.00;14.00;;;;;16.37;31.78;98808.25;5627955;28;4970037;-64
2021/04/11 01:39:20;;;;;;;;;19.17;17.67;;;;;16.45;31.51;98815.94;5639784;28;5765819;-65
2021/04/11 01:42:26;;;;;;;;;17.00;16.00;;;;;16.52;31.41;98820.34;5595506;28;4122681;-64
2021/04/11 01:45:36;;;;;;;;;15.86;15.29;;;;;16.47;31.89;98830.09;5621763;28;5721104;-64
2021/04/11 01:48:44;;;;;;;;;15.14;14.57;;;;;16.42;31.92;98840.13;5632091;28;5715157;-64
2021/04/11 01:51:58;;;;;;;;;15.14;15.00;;;;;16.42;31.60;98837.41;5611075;28;5721001;-64
2021/04/11 01:55:05;;;;;;;;;16.00;15.00;;;;;16.39;31.62;98837.94;5617581;28;5741807;-64
2021/04/11 01:58:13;;;;;;;;;15.67;14.00;;;;;16.29;32.11;98835.13;5596500;28;3206575;-64
2021/04/11 02:01:26;;;;;;;;;16.00;15.00;;;;;16.12;32.71;98835.28;5621640;28;4989854;-64
2021/04/11 02:04:33;;;;;;;;;15.67;15.67;;;;;16.02;32.88;98821.59;5616289;28;4985658;-64
2021/04/11 02:07:41;;;;;;;;;19.71;18.71;;;;;15.89;33.31;98832.88;5617633;28;6510558;-64
2021/04/11 02:10:51;;;;;;;;;19.00;17.00;;;;;15.68;33.55;98825.59;5617247;28;5745977;-64
2021/04/11 02:14:01;;;;;;;;;23.43;20.71;;;;;15.25;33.96;98794.66;5624353;28;6507449;-65
2021/04/11 02:17:10;;;;;;;;;28.71;27.71;;;;;15.46;34.47;98829.13;5622797;28;6511599;-64
2021/04/11 02:20:20;;;;;;;;;24.63;22.00;;;;;15.35;34.42;98830.09;5632306;28;6535502;-64
2021/04/11 02:23:27;;;;;;;;;23.71;21.43;;;;;15.27;34.37;98827.81;5630840;28;5770085;-64
2021/04/11 02:26:34;;;;;;;;;26.00;23.71;;;;;15.16;34.69;98832.31;5615063;28;5752251;-64
2021/04/11 02:29:45;;;;;;;;;24.86;23.14;;;;;14.87;34.89;98800.97;5614294;28;6513114;-64
2021/04/11 02:32:49;;;;;;;;;28.00;25.00;;;;;14.94;35.35;98823.34;5594664;28;4529427;-64
2021/04/11 02:35:54;;;;;;;;;25.71;24.14;;;;;14.91;35.13;98825.72;5614998;28;5750192;-64
2021/04/11 02:39:02;;;;;;;;;24.71;23.43;;;;;14.94;35.02;98827.94;5616437;28;6522036;-64
2021/04/11 02:42:13;;;;;;;;;26.71;24.00;;;;;14.91;35.20;98839.28;5603927;28;5753296;-64
2021/04/11 02:45:25;;;;;;;;;28.00;23.44;;;;;14.87;35.28;98832.72;5594279;28;7281376;-64
2021/04/11 02:48:36;;;;;;;;;24.67;22.50;;;;;14.81;35.05;98826.41;5612838;28;5773119;-64
2021/04/11 02:51:53;;;;;;;;;21.00;20.29;;;;;14.75;35.11;98813.84;5612504;28;6510575;-64
2021/04/11 02:55:10;;;;;;;;;19.00;18.33;;;;;14.76;34.65;98820.91;5618043;28;5741509;-64
2021/04/11 02:58:19;;;;;;;;;17.33;15.00;;;;;14.73;34.38;98827.66;5612392;28;5708499;-64
2021/04/11 03:01:32;;;;;;;;;21.00;19.00;;;;;14.88;34.59;98823.50;5622373;28;6453272;-64
2021/04/11 03:04:39;;;;;;;;;21.00;19.86;;;;;14.93;34.62;98815.44;5611782;28;5762790;-64
2021/04/11 03:07:47;;;;;;;;;21.00;17.00;;;;;14.94;34.16;98817.09;5585901;28;4563753;-64
2021/04/11 03:11:12;;;;;;;;;16.33;15.00;;;;;15.06;33.82;98818.59;5611903;28;4480431;-64
2021/04/11 03:14:24;;;;;;;;;15.00;15.00;;;;;15.14;33.48;98823.59;5640552;28;6448059;-64
2021/04/11 03:17:31;;;;;;;;;19.40;18.80;;;;;15.05;33.59;98797.16;5598738;28;4351266;-63
2021/04/11 03:20:42;;;;;;;;;15.67;15.67;;;;;15.20;33.30;98824.47;5617957;28;5728321;-63
2021/04/11 03:23:56;;;;;;;;;13.00;11.83;;;;;15.35;33.16;98821.09;5629439;28;4966938;-63
2021/04/11 03:27:13;;;;;;;;;16.00;14.00;;;;;15.30;33.75;98819.16;5645570;28;5723097;-63
2021/04/11 03:30:26;;;;;;;;;16.44;15.11;;;;;15.23;33.88;98813.13;5599339;28;5715790;-63
2021/04/11 03:33:38;;;;;;;;;16.14;15.14;;;;;15.13;33.93;98816.53;5628888;28;5720351;-64
2021/04/11 03:36:48;;;;;;;;;15.00;14.00;;;;;15.02;34.03;98806.59;5629469;28;5720978;-64
2021/04/11 03:39:54;;;;;;;;;17.33;16.83;;;;;14.92;34.44;98811.91;5638813;28;5758863;-64
2021/04/11 03:43:02;;;;;;;;;17.00;16.00;;;;;14.80;35.03;98810.38;5611383;28;4241838;-64
2021/04/11 03:46:15;;;;;;;;;19.67;17.33;;;;;14.37;35.61;98770.44;5622246;28;5738670;-63
2021/04/11 03:49:29;;;;;;;;;18.50;17.33;;;;;14.50;35.33;98814.31;5626901;28;5756432;-64
2021/04/11 03:52:43;;;;;;;;;18.17;16.33;;;;;14.38;35.92;98810.84;5620983;28;5751161;-63
2021/04/11 03:55:49;;;;;;;;;19.00;18.00;;;;;14.27;36.17;98804.41;5601134;28;5750111;-64
2021/04/11 03:59:05;;;;;;;;;25.14;21.00;;;;;14.18;36.42;98810.50;5613401;28;6515792;-64
2021/04/11 04:02:25;;;;;;;;;22.29;19.14;;;;;14.12;36.21;98803.38;5627084;28;5745009;-64
2021/04/11 04:05:36;;;;;;;;;17.71;16.29;;;;;14.09;36.08;98798.44;5619094;28;5748135;-64
2021/04/11 04:08:49;;;;;;;;;19.00;18.00;;;;;14.07;36.24;98792.44;5615984;28;5749114;-64
2021/04/11 04:12:20;;;;;;;;;20.33;17.83;;;;;14.09;36.57;98793.00;5628313;28;5727232;-64
2021/04/11 04:15:38;;;;;;;;;19.00;18.00;;;;;14.07;36.50;98785.13;5622338;28;5759554;-63
2021/04/11 04:19:06;;;;;;;;;17.00;15.00;;;;;14.13;35.98;98786.00;5637707;28;5735561;-64
2021/04/11 04:22:32;;;;;;;;;22.17;19.33;;;;;14.28;36.36;98781.66;5611374;28;5748125;-64
2021/04/11 04:26:05;;;;;;;;;18.33;16.00;;;;;14.39;36.03;98801.66;5621766;28;5754370;-64
2021/04/11 04:29:30;;;;;;;;;19.83;17.00;;;;;14.44;36.43;98798.19;5637992;28;5762699;-63
2021/04/11 04:32:57;;;;;;;;;20.83;18.67;;;;;14.47;36.01;98801.22;5617862;28;5754414;-64
2021/04/11 04:36:17;;;;;;;;;19.71;19.29;;;;;14.42;36.52;98803.03;5601775;28;6490787;-64
2021/04/11 04:39:42;;;;;;;;;21.29;20.00;;;;;14.51;36.70;98815.97;5627957;28;6485563;-64
2021/04/11 04:43:22;;;;;;;;;24.57;24.57;;;;;14.51;36.86;98813.25;5592144;28;6501267;-64
2021/04/11 04:46:38;;;;;;;;;23.00;22.00;;;;;14.53;37.04;98805.66;5600488;28;4561694;-64
2021/04/11 04:49:53;;;;;;;;;24.50;22.75;;;;;14.53;37.30;98799.41;5592505;28;6510682;-65
2021/04/11 04:53:12;;;;;;;;;25.83;24.17;;;;;14.59;37.34;98804.66;5621556;28;5748112;-65
2021/04/11 04:56:23;;;;;;;;;24.83;24.00;;;;;14.64;37.27;98793.06;5620428;28;5753260;-65
2021/04/11 04:59:36;;;;;;;;;26.33;25.67;;;;;14.70;37.18;98801.03;5599322;28;5749129;-65
2021/04/11 05:02:49;;;;;;;;;26.00;23.43;;;;;14.74;37.15;98796.75;5621237;28;5789827;-64
2021/04/11 05:06:02;;;;;;;;;28.33;25.00;;;;;14.86;37.24;98799.31;5610824;28;4264814;-64
2021/04/11 05:09:15;;;;;;;;;25.56;22.56;;;;;14.85;37.15;98792.28;5622634;28;3250340;-64
2021/04/11 05:12:32;;;;;;;;;24.57;23.00;;;;;15.06;36.99;98798.75;5598019;28;6520966;-64
2021/04/11 05:15:40;;;;;;;;;24.60;24.00;;;;;15.18;36.50;98802.19;5608561;28;3912747;-64
2021/04/11 05:19:00;;;;;;;;;26.71;25.14;;;;;15.32;36.59;98802.63;5632877;28;6497028;-64
2021/04/11 05:22:30;;;;;;;;;26.83;24.00;;;;;15.43;37.04;98807.91;5621514;28;5777250;-65
2021/04/11 05:25:46;;;;;;;;;27.86;25.86;;;;;15.56;36.49;98807.53;5606078;28;6510602;-65
2021/04/11 05:28:59;;;;;;;;;27.33;25.00;;;;;15.51;36.43;98774.88;5601003;28;3952272;-65
2021/04/11 05:32:06;;;;;;;;;25.00;24.00;;;;;15.84;36.32;98805.63;5612473;28;6498079;-65
2021/04/11 05:35:12;;;;;;;;;28.00;25.33;;;;;15.99;35.98;98809.31;5625531;28;4274148;-65
2021/04/11 05:38:25;;;;;;;;;30.50;28.00;;;;;16.11;35.84;98811.88;5597942;28;7278259;-65
2021/04/11 05:41:40;;;;;;;;;26.33;25.67;;;;;16.27;35.64;98808.19;5618086;28;5757447;-65
2021/04/11 05:44:52;;;;;;;;;26.00;25.00;;;;;16.28;35.65;98784.50;5632239;28;4169999;-65
2021/04/11 05:48:05;;;;;;;;;29.00;26.00;;;;;16.60;35.19;98793.50;5608649;28;4530445;-65
2021/04/11 05:51:14;;;;;;;;;30.71;27.86;;;;;16.74;35.04;98802.84;5609927;28;6539727;-64
2021/04/11 05:54:22;;;;;;;;;30.00;26.67;;;;;16.95;34.52;98801.03;5611872;28;4205410;-64
2021/04/11 05:57:35;;;;;;;;;28.67;26.00;;;;;17.05;34.45;98773.03;5638595;28;5775169;-64
2021/04/11 06:00:47;;;;;;;;;25.29;22.43;;;;;17.44;33.96;98796.06;5639729;28;6518891;-64
2021/04/11 06:04:01;;;;;;;;;26.86;24.57;;;;;17.67;33.59;98792.03;5636657;28;6507425;-64
2021/04/11 06:07:11;;;;;;;;;32.63;27.63;;;;;17.90;33.58;98793.44;5608880;28;7273046;-65
2021/04/11 06:10:25;;;;;;;;;27.00;23.71;;;;;18.19;33.24;98787.16;5645530;28;6466820;-65
2021/04/11 06:13:41;;;;;;;;;25.86;25.00;;;;;18.45;32.41;98784.41;5632457;28;6502647;-65
2021/04/11 06:16:51;;;;;;;;;24.00;21.43;;;;;18.77;32.21;98778.63;5626665;28;5792290;-65
2021/04/11 06:19:58;;;;;;;;;24.00;21.00;;;;;19.04;32.06;98779.13;5635724;28;6506383;-65
2021/04/11 06:23:11;;;;;;;;;19.33;16.33;;;;;19.32;31.03;98772.16;5625602;28;3918991;-65
2021/04/11 06:26:35;;;;;;;;;18.29;17.86;;;;;19.52;29.80;98780.28;5635374;28;5737785;-65
2021/04/11 06:29:53;;;;;;;;;17.71;16.71;;;;;19.86;30.18;98775.69;5633078;28;6491805;-65
2021/04/11 06:33:10;;;;;;;;;18.67;17.17;;;;;20.07;29.38;98779.09;5647568;28;5758508;-65
2021/04/11 06:36:18;;;;;;;;;7.00;7.00;;;;;20.02;26.81;98783.78;5634269;28;4863074;-65
2021/04/11 06:39:25;;;;;;;;;8.00;8.00;;;;;19.80;26.85;98749.44;5614596;28;4841847;-65
2021/04/11 06:42:40;;;;;;;;;6.00;5.00;;;;;19.69;26.80;98788.94;5641500;28;4402312;-65
2021/04/11 06:45:51;;;;;;;;;7.00;6.60;;;;;19.87;26.89;98777.31;5621498;28;4857556;-65
2021/04/11 06:49:18;;;;;;;;;6.40;5.00;;;;;20.10;26.57;98777.69;5640444;28;4141971;-66
2021/04/11 06:52:41;;;;;;;;;5.00;5.00;;;;;19.95;27.11;98773.16;5619627;28;4162662;-65
2021/04/11 06:56:11;;;;;;;;;21.29;18.71;;;;;20.51;28.98;98776.25;5625477;28;5764815;-65
2021/04/11 06:59:39;;;;;;;;;17.67;17.00;;;;;20.84;28.09;98774.53;5650856;28;5733546;-64
2021/04/11 07:03:18;;;;;;;;;17.83;17.83;;;;;21.19;28.19;98767.84;5633436;28;5747013;-64
2021/04/11 07:06:52;;;;;;;;;17.17;17.00;;;;;21.61;28.64;98775.22;5632283;28;5746035;-64
2021/04/11 07:10:26;;;;;;;;;13.00;12.00;;;;;21.26;26.50;98772.97;5616938;28;5682411;-64
2021/04/11 07:14:12;;;;;;;;;8.00;8.00;;;;;21.45;25.97;98760.09;5637473;28;4872101;-64
2021/04/11 07:17:48;;;;;;;;;8.00;8.00;;;;;21.70;25.42;98761.66;5635516;28;4341851;-64
2021/04/11 07:21:17;;;;;;;;;6.60;6.60;;;;;21.81;23.78;98768.63;5639835;28;4837993;-64
2021/04/11 07:24:45;;;;;;;;;6.00;6.00;;;;;21.77;23.75;98768.41;5593464;28;4850159;-64
2021/04/11 07:28:09;;;;;;;;;8.00;6.00;;;;;21.99;23.96;98768.63;5639502;28;4856449;-65
2021/04/11 07:31:31;;;;;;;;;7.00;5.00;;;;;22.00;23.34;98747.47;5640823;28;4850168;-65
2021/04/11 07:35:00;;;;;;;;;5.00;5.00;;;;;22.20;23.15;98771.84;5636217;28;4856490;-65
2021/04/11 07:38:16;;;;;;;;;5.00;5.00;;;;;22.51;23.31;98763.09;5634523;28;4869986;-65
2021/04/11 07:41:55;;;;;;;;;7.00;7.00;;;;;22.48;22.75;98770.81;5651163;28;4160632;-65
2021/04/11 07:45:24;;;;;;;;;5.60;5.00;;;;;22.86;22.48;98779.75;5582846;28;4841915;-65
2021/04/11 07:48:46;;;;;;;;;6.80;5.80;;;;;23.09;21.87;98772.44;5620544;28;4859922;-65
2021/04/11 07:51:58;;;;;;;;;6.00;6.00;;;;;23.37;22.60;98775.97;5648227;28;4856481;-65
2021/04/11 07:55:21;;;;;;;;;6.00;6.00;;;;;23.62;21.95;98744.34;5659202;28;4859625;-64
2021/04/11 07:58:50;;;;;;;;;5.00;4.00;;;;;24.04;20.92;98771.41;5634588;28;4096095;-64
2021/04/11 08:02:19;;;;;;;;;5.80;5.80;;;;;24.05;21.10;98759.28;5630164;28;4850280;-64
2021/04/11 08:05:33;;;;;;;;;6.00;5.00;;;;;24.12;20.51;98767.94;5632231;28;4861684;-64
2021/04/11 08:09:09;;;;;;;;;5.00;4.75;;;;;24.34;20.85;98760.78;5664729;28;4134564;-64
2021/04/11 08:12:37;;;;;;;;;4.20;4.00;;;;;24.35;20.53;98771.50;5622726;28;4864774;-64
2021/04/11 08:15:49;;;;;;;;;5.40;5.40;;;;;23.92;20.65;98779.44;5626120;28;4844944;-65
2021/04/11 08:19:37;;;;;;;;;6.00;5.80;;;;;23.68;21.26;98767.88;5668891;28;4872090;-65
2021/04/11 08:23:04;;;;;;;;;4.83;4.00;;;;;23.93;21.18;98770.06;5628380;28;4152259;-64
2021/04/11 08:26:35;;;;;;;;;6.00;4.75;;;;;22.43;21.47;98707.72;5628671;28;4139783;-65
2021/04/11 08:30:02;;;;;;;;;5.67;5.67;;;;;23.24;21.90;98758.38;5663559;28;4844306;-64
2021/04/11 08:33:48;;;;;;;;;6.00;6.00;;;;;23.60;21.49;98772.16;5649902;28;4848119;-65
2021/04/11 08:37:19;;;;;;;;;6.33;5.67;;;;;23.40;21.11;98777.31;5622963;28;4854359;-64
2021/04/11 08:40:34;;;;;;;;;7.00;6.00;;;;;23.85;21.33;98768.03;5638590;28;4874137;-64
2021/04/11 08:43:54;;;;;;;;;5.00;5.00;;;;;23.89;21.16;98776.50;5633413;28;4143962;-64
2021/04/11 08:47:15;;;;;;;;;6.78;6.00;;;;;24.32;20.82;98776.84;5628727;28;4859574;-64
2021/04/11 08:50:21;;;;;;;;;6.00;6.00;;;;;24.67;20.74;98770.41;5623280;28;4852303;-64
2021/04/11 08:53:32;;;;;;;;;4.00;4.00;;;;;25.13;20.16;98766.38;5623927;28;4858517;-65
2021/04/11 08:56:39;;;;;;;;;5.00;4.40;;;;;24.57;20.38;98773.44;5614907;28;4863756;-64
2021/04/11 08:59:54;;;;;;;;;5.40;5.00;;;;;24.63;20.48;98760.34;5617509;28;4855412;-65
2021/04/11 09:03:30;;;;;;;;;4.20;4.00;;;;;24.38;20.35;98754.38;5610091;28;4880398;-64
2021/04/11 09:06:59;;;;;;;;;5.00;4.11;;;;;25.05;20.12;98753.38;5651473;28;4835657;-64
2021/04/11 09:10:15;;;;;;;;;4.33;4.33;;;;;24.87;20.02;98755.28;5614979;28;4867274;-64
2021/04/11 09:13:32;;;;;;;;;5.00;5.00;;;;;25.26;19.88;98749.72;5640023;28;4126367;-65
2021/04/11 09:16:45;;;;;;;;;5.67;5.00;;;;;25.58;19.94;98744.94;5623060;28;4854342;-64
2021/04/11 09:19:57;;;;;;;;;5.00;4.60;;;;;25.98;19.93;98757.44;5616935;28;4157602;-64
2021/04/11 09:23:26;;;;;;;;;5.00;4.80;;;;;25.90;19.38;98744.47;5634962;28;4844967;-64
2021/04/11 09:27:06;;;;;;;;;4.40;4.40;;;;;25.62;19.00;98748.66;5614179;28;4841886;-64
2021/04/11 09:30:27;;;;;;;;;6.20;5.00;;;;;26.09;19.96;98739.41;5598183;28;4846022;-64
2021/04/11 09:33:45;;;;;;;;;4.00;4.00;;;;;26.37;18.42;98730.78;5607689;28;4879713;-64
2021/04/11 09:37:02;;;;;;;;;4.00;4.00;;;;;26.66;18.89;98731.66;5632099;28;4879324;-66
2021/04/11 09:40:17;;;;;;;;;5.80;4.00;;;;;26.63;18.15;98714.91;5616948;28;4866870;-64
2021/04/11 09:43:58;;;;;;;;;4.33;4.33;;;;;26.62;18.50;98722.41;5662491;28;4835652;-66
2021/04/11 09:47:26;;;;;;;;;3.40;3.00;;;;;27.42;17.74;98726.06;5623361;28;4864782;-65
2021/04/11 09:50:44;;;;;;;;;3.00;3.00;;;;;27.24;17.51;98724.56;5622778;28;4873103;-66
2021/04/11 09:54:04;;;;;;;;;4.00;4.00;;;;;27.03;17.52;98723.69;5640610;28;4850516;-64
2021/04/11 09:57:49;;;;;;;;;5.40;4.80;;;;;27.35;17.92;98716.69;5664868;28;4851210;-66
2021/04/11 10:01:01;;;;;;;;;4.00;4.00;;;;;27.82;16.57;98703.47;5613609;28;4164383;-64
2021/04/11 10:04:23;;;;;;;;;3.80;3.80;;;;;28.06;16.46;98705.53;5641210;28;4866875;-65
2021/04/11 10:07:44;;;;;;;;;5.00;5.00;;;;;28.52;16.35;98707.19;5642889;28;4139814;-65
2021/04/11 10:11:04;;;;;;;;;5.00;5.00;;;;;28.56;16.89;98699.78;5662035;28;4883539;-64
2021/04/11 10:14:18;;;;;;;;;4.00;4.00;;;;;28.73;15.63;98696.84;5625750;28;4167337;-64
2021/04/11 10:17:39;;;;;;;;;4.40;3.60;;;;;28.65;16.31;98717.94;5630386;28;4861680;-65
2021/04/11 10:20:55;;;;;;;;;4.00;3.00;;;;;28.07;16.43;98704.38;5626457;28;4878702;-65
2021/04/11 10:24:15;;;;;;;;;3.00;2.80;;;;;28.01;16.24;98706.53;5654740;28;4867900;-65
2021/04/11 10:27:25;;;;;;;;;4.20;3.00;;;;;28.27;15.48;98707.13;5606664;28;4871071;-65
2021/04/11 10:30:34;;;;;;;;;2.00;2.00;;;;;28.17;15.33;98721.44;5664250;28;4852290;-64
2021/04/11 10:33:47;;;;;;;;;5.00;5.00;;;;;28.29;15.51;98693.75;5621387;28;4849201;-65
2021/04/11 10:36:55;;;;;;;;;3.20;3.20;;;;;28.20;15.55;98709.66;5627261;28;4872474;-65
2021/04/11 10:40:24;;;;;;;;;2.00;2.00;;;;;28.36;15.47;98707.03;5628036;28;4850176;-65
2021/04/11 10:43:49;;;;;;;;;2.00;2.00;;;;;28.61;15.64;98697.63;5638036;28;4864770;-65
2021/04/11 10:47:06;;;;;;;;;2.00;2.00;;;;;28.37;15.34;98712.25;5632626;28;4144390;-65
2021/04/11 10:50:17;;;;;;;;;1.75;1.75;;;;;28.22;15.69;98707.34;5627528;28;4134591;-65
2021/04/11 10:53:43;;;;;;;;;2.00;2.00;;;;;28.34;16.36;98695.50;5636169;28;3113767;-65
2021/04/11 10:57:04;;;;;;;;;1.00;1.00;;;;;28.71;15.89;98696.34;5626352;28;4129407;-65
2021/04/11 11:00:13;;;;;;;;;2.00;2.00;;;;;28.42;16.07;98689.03;5621920;28;4850252;-64
2021/04/11 11:03:49;;;;;;;;;2.00;2.00;;;;;28.41;16.29;98698.50;5649231;28;4132848;-64
2021/04/11 11:07:19;;;;;;;;;2.00;2.00;;;;;28.71;15.96;98691.66;5606902;28;4831778;-65
2021/04/11 11:10:39;;;;;;;;;2.00;2.00;;;;;28.91;16.04;98701.00;5622673;28;4864755;-65
2021/04/11 11:14:05;;;;;;;;;2.00;2.00;;;;;29.20;15.35;98711.06;5612150;28;4407533;-65
2021/04/11 11:17:28;;;;;;;;;2.00;2.00;;;;;29.50;15.68;98698.56;5621775;28;4879400;-65
2021/04/11 11:20:40;;;;;;;;;3.00;3.00;;;;;29.37;15.83;98685.06;5607729;28;4861661;-65
2021/04/11 11:24:19;;;;;;;;;1.75;1.00;;;;;29.22;15.97;98701.22;5630625;28;4138030;-65
2021/04/11 11:28:00;;;;;;;;;2.00;2.00;;;;;28.53;16.45;98706.84;5641417;28;4850219;-65
2021/04/11 11:31:13;;;;;;;;;1.40;1.40;;;;;28.33;16.94;98700.22;5633227;28;4840798;-65
2021/04/11 11:34:24;;;;;;;;;2.83;2.83;;;;;28.18;17.15;98700.88;5634027;28;4860589;-65
2021/04/11 11:37:46;;;;;;;;;2.40;2.40;;;;;28.50;17.13;98704.75;5625543;28;4852284;-64
2021/04/11 11:41:07;;;;;;;;;3.00;2.50;;;;;28.82;16.84;98700.31;5670196;28;4865228;-64
2021/04/11 11:44:17;;;;;;;;;2.00;1.00;;;;;29.24;17.38;98698.09;5603866;28;4840809;-65
2021/04/11 11:47:31;;;;;;;;;2.78;2.00;;;;;29.08;16.87;98694.41;5657495;28;4850211;-65
2021/04/11 11:50:39;;;;;;;;;1.80;1.80;;;;;28.71;16.85;98688.03;5609831;28;4850207;-65
2021/04/11 11:53:46;;;;;;;;;2.20;1.80;;;;;28.51;17.41;98688.94;5624555;28;4843958;-65
2021/04/11 11:57:04;;;;;;;;;2.00;2.00;;;;;28.25;17.64;98701.13;5628063;28;4862692;-65
2021/04/11 12:00:15;;;;;;;;;1.60;1.60;;;;;27.89;18.14;98687.13;5626602;28;4857523;-65
2021/04/11 12:03:25;;;;;;;;;2.60;2.00;;;;;27.60;18.49;98701.88;5641344;28;4847086;-64
2021/04/11 12:06:33;;;;;;;;;3.00;3.00;;;;;27.47;18.68;98697.38;5627480;28;4868952;-64
2021/04/11 12:09:44;;;;;;;;;3.40;3.40;;;;;27.22;18.85;98712.22;5608143;28;4869959;-65
2021/04/11 12:13:10;;;;;;;;;3.00;2.40;;;;;26.92;19.39;98703.91;5637822;28;4871051;-65
2021/04/11 12:16:24;;;;;;;;;2.20;2.00;;;;;26.62;19.30;98691.16;5627247;28;4854745;-65
2021/04/11 12:19:35;;;;;;;;;2.00;2.00;;;;;26.39;19.81;98712.69;5620609;28;4848088;-65
2021/04/11 12:22:43;;;;;;;;;3.00;2.00;;;;;26.31;20.23;98699.72;5626530;28;4852290;-65
2021/04/11 12:25:47;;;;;;;;;2.00;2.00;;;;;26.65;20.11;98696.84;5636794;28;4298154;-65
2021/04/11 12:29:06;;;;;;;;;3.20;3.20;;;;;26.49;19.91;98709.56;5659980;28;4860640;-65
2021/04/11 12:32:16;;;;;;;;;1.00;1.00;;;;;26.26;20.34;98705.44;5611471;28;4136001;-65
2021/04/11 12:35:26;;;;;;;;;2.00;2.00;;;;;26.24;20.55;98704.97;5609983;28;4858607;-65
2021/04/11 12:38:38;;;;;;;;;2.00;1.00;;;;;26.19;20.70;98711.41;5630357;28;4850204;-65
2021/04/11 12:41:50;;;;;;;;;2.00;2.00;;;;;25.96;21.29;98698.94;5653182;28;3105399;-65
2021/04/11 12:45:03;;;;;;;;;2.00;2.00;;;;;25.88;21.38;98714.41;5625690;28;4850168;-65
2021/04/11 12:48:16;;;;;;;;;2.00;2.00;;;;;25.80;21.88;98714.41;5635090;28;4447142;-65
2021/04/11 12:51:28;;;;;;;;;1.80;1.80;;;;;25.40;22.23;98722.00;5641213;28;4850192;-64
2021/04/11 12:54:42;;;;;;;;;5.00;4.20;;;;;25.06;22.30;98724.69;5631469;28;4872046;-64
2021/04/11 12:57:57;;;;;;;;;6.80;5.80;;;;;24.93;22.52;98723.66;5640436;28;4849127;-64
2021/04/11 13:01:14;;;;;;;;;2.60;2.00;;;;;24.80;22.69;98725.38;5635263;28;4387738;-64
2021/04/11 13:04:28;;;;;;;;;1.20;1.20;;;;;24.48;22.95;98720.22;5626775;28;4850542;-64
2021/04/11 13:07:44;;;;;;;;;3.00;3.00;;;;;24.34;23.17;98719.47;5641095;28;4829324;-66
2021/04/11 13:11:04;;;;;;;;;3.00;3.00;;;;;24.25;23.68;98722.16;5626294;28;4862725;-64
2021/04/11 13:14:32;;;;;;;;;3.00;3.00;;;;;24.21;23.70;98731.38;5637581;28;4858505;-65
2021/04/11 13:17:44;;;;;;;;;1.20;1.00;;;;;23.80;24.09;98732.34;5640918;28;4842210;-65
2021/04/11 13:21:01;;;;;;;;;2.00;2.00;;;;;23.92;24.20;98738.13;5598934;28;4138761;-65
2021/04/11 13:24:15;;;;;;;;;2.60;2.00;;;;;23.80;24.48;98728.81;5623109;28;4864795;-64
2021/04/11 13:27:24;;;;;;;;;2.00;1.00;;;;;23.68;24.41;98738.44;5638717;28;4137708;-65
2021/04/11 13:30:31;;;;;;;;;3.00;2.00;;;;;23.73;24.63;98734.75;5635954;28;4858564;-65
2021/04/11 13:33:49;;;;;;;;;2.00;2.00;;;;;23.47;24.98;98742.75;5647602;28;4855716;-64
2021/04/11 13:36:56;;;;;;;;;2.00;1.00;;;;;23.48;24.99;98735.31;5625274;28;4129704;-65
2021/04/11 13:40:02;;;;;;;;;2.00;2.00;;;;;23.30;24.86;98737.06;5604378;28;4141971;-65
2021/04/11 13:43:16;;;;;;;;;2.00;2.00;;;;;22.93;25.65;98740.84;5635416;28;4850172;-65
2021/04/11 13:46:32;;;;;;;;;3.00;2.40;;;;;23.05;25.77;98735.66;5637128;28;4148102;-65
2021/04/11 13:49:42;;;;;;;;;2.00;1.00;;;;;22.96;25.70;98734.75;5619824;28;4837711;-65
2021/04/11 13:52:50;;;;;;;;;3.00;2.60;;;;;22.79;25.44;98734.53;5626642;28;4869329;-65
2021/04/11 13:55:58;;;;;;;;;2.00;1.40;;;;;22.62;25.83;98712.34;5635910;28;4142953;-65
2021/04/11 13:59:12;;;;;;;;;1.80;1.80;;;;;22.50;25.75;98728.47;5632554;28;4140228;-65
2021/04/11 14:02:28;;;;;;;;;3.00;3.00;;;;;22.48;26.17;98746.06;5627287;28;4852250;-64
2021/04/11 14:05:35;;;;;;;;;10.00;9.00;;;;;22.41;26.44;98744.84;5615811;28;4114801;-64
2021/04/11 14:08:48;;;;;;;;;2.40;2.40;;;;;22.31;26.26;98745.03;5626343;28;4862700;-65
2021/04/11 14:12:08;;;;;;;;;50.00;41.29;;;;;22.22;26.18;98744.09;5632074;28;6549114;-64
2021/04/11 14:15:21;;;;;;;;;6.80;6.80;;;;;22.26;26.38;98728.66;5615739;28;4873150;-64
2021/04/11 14:18:39;;;;;;;;;4.00;3.56;;;;;22.32;26.28;98746.69;5657288;28;4843986;-64
2021/04/11 14:21:49;;;;;;;;;3.67;3.33;;;;;22.12;26.54;98725.88;5620932;28;4850259;-64
2021/04/11 14:25:00;;;;;;;;;2.60;2.00;;;;;22.02;26.75;98726.03;5625311;28;4415866;-64
2021/04/11 14:28:12;;;;;;;;;7.00;6.00;;;;;21.98;28.11;98738.75;5638564;28;4869285;-64
2021/04/11 14:31:27;;;;;;;;;5.00;4.00;;;;;22.02;28.41;98756.25;5657837;28;4842940;-64
2021/04/11 14:34:35;;;;;;;;;4.00;4.00;;;;;21.53;29.17;98740.22;5628047;28;4848109;-63
2021/04/11 14:37:49;;;;;;;;;4.00;4.00;;;;;21.68;30.59;98767.44;5636387;28;4879346;-63
2021/04/11 14:40:56;;;;;;;;;3.00;2.00;;;;;21.54;31.99;98767.38;5646402;28;4876255;-65
2021/04/11 14:44:01;;;;;;;;;3.83;3.00;;;;;21.37;32.38;98749.78;5629546;28;4856461;-64
2021/04/11 14:47:14;;;;;;;;;4.00;3.00;;;;;21.36;33.35;98742.66;5629595;28;4135676;-64
2021/04/11 14:50:25;;;;;;;;;4.00;4.00;;;;;21.23;31.76;98770.81;5625955;28;4849139;-64